Arendahl, Minnesota
Current Conditions -  °F | °C
As of 9:16 AM on Thursday 30 Oct 2014 (Local Time) from KFKA Reporting Station
Overcast Overcast  
Wind Chill: 33°   Ceiling: 8000
Heat Index: 37°   Visibility: 7mi
Dew Point: 33°   Wind: 5mph
Humidity: 87%   Direction: 180°S
Pressure: 30.07"   Gusts: NA
Location:  43.7298°N, 91.8267°W
Report Text: KFKA 301416Z AUTO 18004KT 7SM OVC080 03/01 A3007 RMK AO2 T00280008
Loading
Personal Weather Stations






























Interactive Weather Map
Tropical Storm Tracking
New forecast layout! Learn more

10-Day Weather Forecast

Advertisements
Track Severe Weather on mobile